sensor_id;sensor_type;location;lat;lon;timestamp;P1;durP1;ratioP1;P2;durP2;ratioP2
14665;SDS011;7420;53.574;10.040;2022-07-04T00:00:38;4.70;;;3.33;;
14665;SDS011;7420;53.574;10.040;2022-07-04T00:03:03;10.93;;;3.75;;
14665;SDS011;7420;53.574;10.040;2022-07-04T00:05:28;7.50;;;3.65;;
14665;SDS011;7420;53.574;10.040;2022-07-04T00:07:54;8.73;;;3.97;;
14665;SDS011;7420;53.574;10.040;2022-07-04T00:10:19;6.53;;;3.93;;
14665;SDS011;7420;53.574;10.040;2022-07-04T00:12:48;8.25;;;3.60;;
14665;SDS011;7420;53.574;10.040;2022-07-04T00:15:13;4.78;;;3.60;;
14665;SDS011;7420;53.574;10.040;2022-07-04T00:17:39;5.70;;;3.55;;
14665;SDS011;7420;53.574;10.040;2022-07-04T00:20:04;9.90;;;3.90;;
14665;SDS011;7420;53.574;10.040;2022-07-04T00:22:30;6.40;;;3.90;;
14665;SDS011;7420;53.574;10.040;2022-07-04T00:24:55;6.47;;;4.03;;
14665;SDS011;7420;53.574;10.040;2022-07-04T00:27:20;8.65;;;3.75;;
14665;SDS011;7420;53.574;10.040;2022-07-04T00:29:46;6.63;;;4.13;;
14665;SDS011;7420;53.574;10.040;2022-07-04T00:32:11;6.70;;;4.05;;
14665;SDS011;7420;53.574;10.040;2022-07-04T00:34:36;7.32;;;3.97;;
14665;SDS011;7420;53.574;10.040;2022-07-04T00:37:01;8.43;;;4.63;;
14665;SDS011;7420;53.574;10.040;2022-07-04T00:39:27;9.00;;;3.95;;
14665;SDS011;7420;53.574;10.040;2022-07-04T00:41:52;7.80;;;4.78;;
14665;SDS011;7420;53.574;10.040;2022-07-04T00:44:17;7.17;;;4.30;;
14665;SDS011;7420;53.574;10.040;2022-07-04T00:46:43;8.73;;;5.32;;
14665;SDS011;7420;53.574;10.040;2022-07-04T00:49:09;8.95;;;5.43;;
14665;SDS011;7420;53.574;10.040;2022-07-04T00:51:34;8.23;;;5.45;;
14665;SDS011;7420;53.574;10.040;2022-07-04T00:54:01;8.50;;;5.38;;
14665;SDS011;7420;53.574;10.040;2022-07-04T00:56:27;12.63;;;6.05;;
14665;SDS011;7420;53.574;10.040;2022-07-04T00:58:52;10.55;;;6.70;;
14665;SDS011;7420;53.574;10.040;2022-07-04T01:01:21;10.05;;;7.38;;
14665;SDS011;7420;53.574;10.040;2022-07-04T01:03:47;8.95;;;6.22;;
14665;SDS011;7420;53.574;10.040;2022-07-04T01:06:13;9.35;;;6.75;;
14665;SDS011;7420;53.574;10.040;2022-07-04T01:08:40;10.20;;;6.38;;
14665;SDS011;7420;53.574;10.040;2022-07-04T01:11:05;12.07;;;7.80;;
14665;SDS011;7420;53.574;10.040;2022-07-04T01:13:31;12.30;;;6.80;;
14665;SDS011;7420;53.574;10.040;2022-07-04T01:15:56;10.02;;;6.28;;
14665;SDS011;7420;53.574;10.040;2022-07-04T01:18:21;9.00;;;7.18;;
14665;SDS011;7420;53.574;10.040;2022-07-04T01:20:47;12.88;;;8.07;;
14665;SDS011;7420;53.574;10.040;2022-07-04T01:23:12;9.80;;;6.95;;
14665;SDS011;7420;53.574;10.040;2022-07-04T01:25:37;11.45;;;7.30;;
14665;SDS011;7420;53.574;10.040;2022-07-04T01:28:03;10.98;;;8.35;;
14665;SDS011;7420;53.574;10.040;2022-07-04T01:30:29;11.20;;;8.02;;
14665;SDS011;7420;53.574;10.040;2022-07-04T01:32:54;13.55;;;10.02;;
14665;SDS011;7420;53.574;10.040;2022-07-04T01:35:20;11.95;;;9.82;;
14665;SDS011;7420;53.574;10.040;2022-07-04T01:37:45;13.02;;;11.10;;
14665;SDS011;7420;53.574;10.040;2022-07-04T01:40:11;16.40;;;10.40;;
14665;SDS011;7420;53.574;10.040;2022-07-04T01:42:37;13.40;;;10.15;;
14665;SDS011;7420;53.574;10.040;2022-07-04T01:45:02;17.92;;;11.68;;
14665;SDS011;7420;53.574;10.040;2022-07-04T01:47:27;14.60;;;11.05;;
14665;SDS011;7420;53.574;10.040;2022-07-04T01:49:53;14.32;;;11.63;;
14665;SDS011;7420;53.574;10.040;2022-07-04T01:52:18;13.23;;;10.23;;
14665;SDS011;7420;53.574;10.040;2022-07-04T01:54:43;15.50;;;11.45;;
14665;SDS011;7420;53.574;10.040;2022-07-04T01:57:09;15.40;;;11.65;;
14665;SDS011;7420;53.574;10.040;2022-07-04T01:59:34;19.40;;;11.52;;
14665;SDS011;7420;53.574;10.040;2022-07-04T02:02:18;16.73;;;12.00;;
14665;SDS011;7420;53.574;10.040;2022-07-04T02:04:43;18.77;;;11.70;;
14665;SDS011;7420;53.574;10.040;2022-07-04T02:07:08;16.33;;;12.60;;
14665;SDS011;7420;53.574;10.040;2022-07-04T02:09:33;19.23;;;12.23;;
14665;SDS011;7420;53.574;10.040;2022-07-04T02:11:58;24.25;;;15.38;;
14665;SDS011;7420;53.574;10.040;2022-07-04T02:14:42;17.45;;;13.73;;
14665;SDS011;7420;53.574;10.040;2022-07-04T02:17:08;18.63;;;13.48;;
14665;SDS011;7420;53.574;10.040;2022-07-04T02:19:34;19.48;;;14.13;;
14665;SDS011;7420;53.574;10.040;2022-07-04T02:21:59;19.67;;;14.57;;
14665;SDS011;7420;53.574;10.040;2022-07-04T02:24:24;17.67;;;13.13;;
14665;SDS011;7420;53.574;10.040;2022-07-04T02:26:49;16.15;;;12.52;;
14665;SDS011;7420;53.574;10.040;2022-07-04T02:29:15;18.85;;;13.48;;
14665;SDS011;7420;53.574;10.040;2022-07-04T02:31:40;23.48;;;13.65;;
14665;SDS011;7420;53.574;10.040;2022-07-04T02:34:06;18.65;;;13.88;;
14665;SDS011;7420;53.574;10.040;2022-07-04T02:36:31;20.73;;;13.60;;
14665;SDS011;7420;53.574;10.040;2022-07-04T02:38:56;18.42;;;12.18;;
14665;SDS011;7420;53.574;10.040;2022-07-04T02:41:21;17.30;;;13.50;;
14665;SDS011;7420;53.574;10.040;2022-07-04T02:43:46;15.35;;;13.45;;
14665;SDS011;7420;53.574;10.040;2022-07-04T02:46:12;19.45;;;13.32;;
14665;SDS011;7420;53.574;10.040;2022-07-04T02:48:37;17.10;;;12.95;;
14665;SDS011;7420;53.574;10.040;2022-07-04T02:51:02;15.68;;;11.95;;
14665;SDS011;7420;53.574;10.040;2022-07-04T02:53:27;15.55;;;11.88;;
14665;SDS011;7420;53.574;10.040;2022-07-04T02:55:53;17.52;;;11.85;;
14665;SDS011;7420;53.574;10.040;2022-07-04T02:58:18;17.17;;;11.40;;
14665;SDS011;7420;53.574;10.040;2022-07-04T03:00:43;16.88;;;11.68;;
14665;SDS011;7420;53.574;10.040;2022-07-04T03:03:08;12.23;;;10.27;;
14665;SDS011;7420;53.574;10.040;2022-07-04T03:05:34;14.18;;;10.60;;
14665;SDS011;7420;53.574;10.040;2022-07-04T03:07:59;17.23;;;10.93;;
14665;SDS011;7420;53.574;10.040;2022-07-04T03:10:24;12.45;;;10.80;;
14665;SDS011;7420;53.574;10.040;2022-07-04T03:12:49;16.30;;;9.55;;
14665;SDS011;7420;53.574;10.040;2022-07-04T03:15:15;11.97;;;9.27;;
14665;SDS011;7420;53.574;10.040;2022-07-04T03:17:40;12.35;;;8.85;;
14665;SDS011;7420;53.574;10.040;2022-07-04T03:20:05;14.10;;;8.82;;
14665;SDS011;7420;53.574;10.040;2022-07-04T03:22:31;12.07;;;8.98;;
14665;SDS011;7420;53.574;10.040;2022-07-04T03:24:56;14.48;;;9.73;;
14665;SDS011;7420;53.574;10.040;2022-07-04T03:27:21;10.82;;;8.25;;
14665;SDS011;7420;53.574;10.040;2022-07-04T03:29:46;13.35;;;10.38;;
14665;SDS011;7420;53.574;10.040;2022-07-04T03:32:12;11.93;;;9.38;;
14665;SDS011;7420;53.574;10.040;2022-07-04T03:34:37;13.57;;;9.00;;
14665;SDS011;7420;53.574;10.040;2022-07-04T03:37:02;14.48;;;9.80;;
14665;SDS011;7420;53.574;10.040;2022-07-04T03:39:27;17.80;;;11.02;;
14665;SDS011;7420;53.574;10.040;2022-07-04T03:41:53;17.80;;;11.40;;
14665;SDS011;7420;53.574;10.040;2022-07-04T03:44:18;18.47;;;11.57;;
14665;SDS011;7420;53.574;10.040;2022-07-04T03:46:43;14.25;;;10.98;;
14665;SDS011;7420;53.574;10.040;2022-07-04T03:49:08;16.40;;;11.60;;
14665;SDS011;7420;53.574;10.040;2022-07-04T03:51:34;17.05;;;13.57;;
14665;SDS011;7420;53.574;10.040;2022-07-04T03:53:59;21.20;;;14.18;;
14665;SDS011;7420;53.574;10.040;2022-07-04T03:56:24;18.95;;;13.95;;
14665;SDS011;7420;53.574;10.040;2022-07-04T03:58:49;17.38;;;12.63;;
14665;SDS011;7420;53.574;10.040;2022-07-04T04:01:15;18.20;;;13.63;;
14665;SDS011;7420;53.574;10.040;2022-07-04T04:03:41;19.48;;;13.45;;
14665;SDS011;7420;53.574;10.040;2022-07-04T04:08:50;17.15;;;12.95;;
14665;SDS011;7420;53.574;10.040;2022-07-04T04:11:15;22.85;;;11.63;;
14665;SDS011;7420;53.574;10.040;2022-07-04T04:13:40;17.63;;;13.40;;
14665;SDS011;7420;53.574;10.040;2022-07-04T04:16:06;13.77;;;11.63;;
14665;SDS011;7420;53.574;10.040;2022-07-04T04:18:31;20.08;;;12.65;;
14665;SDS011;7420;53.574;10.040;2022-07-04T04:20:56;20.58;;;12.93;;
14665;SDS011;7420;53.574;10.040;2022-07-04T04:23:21;13.87;;;9.83;;
14665;SDS011;7420;53.574;10.040;2022-07-04T04:25:47;15.52;;;9.50;;
14665;SDS011;7420;53.574;10.040;2022-07-04T04:28:12;11.85;;;9.02;;
14665;SDS011;7420;53.574;10.040;2022-07-04T04:30:37;13.53;;;9.00;;
14665;SDS011;7420;53.574;10.040;2022-07-04T04:33:02;13.07;;;10.73;;
14665;SDS011;7420;53.574;10.040;2022-07-04T04:35:28;12.60;;;9.60;;
14665;SDS011;7420;53.574;10.040;2022-07-04T04:37:53;14.20;;;9.17;;
14665;SDS011;7420;53.574;10.040;2022-07-04T04:40:18;10.50;;;8.25;;
14665;SDS011;7420;53.574;10.040;2022-07-04T04:42:43;13.98;;;7.82;;
14665;SDS011;7420;53.574;10.040;2022-07-04T04:45:09;12.57;;;8.30;;
14665;SDS011;7420;53.574;10.040;2022-07-04T04:47:34;13.18;;;8.32;;
14665;SDS011;7420;53.574;10.040;2022-07-04T04:49:59;10.68;;;7.90;;
14665;SDS011;7420;53.574;10.040;2022-07-04T04:52:25;10.52;;;8.05;;
14665;SDS011;7420;53.574;10.040;2022-07-04T04:54:50;11.45;;;8.23;;
14665;SDS011;7420;53.574;10.040;2022-07-04T04:57:16;15.80;;;9.17;;
14665;SDS011;7420;53.574;10.040;2022-07-04T04:59:41;12.47;;;8.93;;
14665;SDS011;7420;53.574;10.040;2022-07-04T05:02:06;11.43;;;9.75;;
14665;SDS011;7420;53.574;10.040;2022-07-04T05:04:31;13.57;;;8.52;;
14665;SDS011;7420;53.574;10.040;2022-07-04T05:06:57;14.15;;;8.93;;
14665;SDS011;7420;53.574;10.040;2022-07-04T05:09:22;11.18;;;8.48;;
14665;SDS011;7420;53.574;10.040;2022-07-04T05:11:48;12.52;;;8.00;;
14665;SDS011;7420;53.574;10.040;2022-07-04T05:14:13;8.63;;;6.35;;
14665;SDS011;7420;53.574;10.040;2022-07-04T05:16:39;10.55;;;7.13;;
14665;SDS011;7420;53.574;10.040;2022-07-04T05:19:05;9.35;;;6.20;;
14665;SDS011;7420;53.574;10.040;2022-07-04T05:21:30;9.40;;;6.80;;
14665;SDS011;7420;53.574;10.040;2022-07-04T05:23:55;11.07;;;6.80;;
14665;SDS011;7420;53.574;10.040;2022-07-04T05:26:21;8.77;;;5.68;;
14665;SDS011;7420;53.574;10.040;2022-07-04T05:28:46;12.98;;;5.25;;
14665;SDS011;7420;53.574;10.040;2022-07-04T05:31:12;10.38;;;4.85;;
14665;SDS011;7420;53.574;10.040;2022-07-04T05:33:37;8.00;;;5.40;;
14665;SDS011;7420;53.574;10.040;2022-07-04T05:36:02;7.63;;;4.83;;
14665;SDS011;7420;53.574;10.040;2022-07-04T05:38:28;12.32;;;5.43;;
14665;SDS011;7420;53.574;10.040;2022-07-04T05:40:53;5.53;;;4.83;;
14665;SDS011;7420;53.574;10.040;2022-07-04T05:43:18;12.00;;;5.35;;
14665;SDS011;7420;53.574;10.040;2022-07-04T05:45:43;6.78;;;4.68;;
14665;SDS011;7420;53.574;10.040;2022-07-04T05:48:09;9.02;;;4.80;;
14665;SDS011;7420;53.574;10.040;2022-07-04T05:50:34;13.73;;;5.00;;
14665;SDS011;7420;53.574;10.040;2022-07-04T05:53:00;6.38;;;4.13;;
14665;SDS011;7420;53.574;10.040;2022-07-04T05:55:25;6.07;;;3.30;;
14665;SDS011;7420;53.574;10.040;2022-07-04T05:57:50;6.03;;;3.60;;
14665;SDS011;7420;53.574;10.040;2022-07-04T06:00:15;7.07;;;3.40;;
14665;SDS011;7420;53.574;10.040;2022-07-04T06:02:41;4.53;;;3.05;;
14665;SDS011;7420;53.574;10.040;2022-07-04T06:05:07;6.50;;;3.40;;
14665;SDS011;7420;53.574;10.040;2022-07-04T06:07:33;6.25;;;3.33;;
14665;SDS011;7420;53.574;10.040;2022-07-04T06:09:58;3.93;;;3.10;;
14665;SDS011;7420;53.574;10.040;2022-07-04T06:12:23;4.60;;;3.43;;
14665;SDS011;7420;53.574;10.040;2022-07-04T06:14:48;5.68;;;3.10;;
14665;SDS011;7420;53.574;10.040;2022-07-04T06:17:14;7.35;;;3.38;;
14665;SDS011;7420;53.574;10.040;2022-07-04T06:19:39;5.80;;;2.33;;
14665;SDS011;7420;53.574;10.040;2022-07-04T06:22:04;5.90;;;2.65;;
14665;SDS011;7420;53.574;10.040;2022-07-04T06:24:29;5.68;;;2.42;;
14665;SDS011;7420;53.574;10.040;2022-07-04T06:26:54;7.38;;;2.50;;
14665;SDS011;7420;53.574;10.040;2022-07-04T06:29:20;4.38;;;2.47;;
14665;SDS011;7420;53.574;10.040;2022-07-04T06:31:45;5.43;;;2.55;;
14665;SDS011;7420;53.574;10.040;2022-07-04T06:34:10;5.07;;;2.13;;
14665;SDS011;7420;53.574;10.040;2022-07-04T06:36:54;5.45;;;2.28;;
14665;SDS011;7420;53.574;10.040;2022-07-04T06:39:19;6.13;;;2.90;;
14665;SDS011;7420;53.574;10.040;2022-07-04T06:41:44;6.53;;;2.50;;
14665;SDS011;7420;53.574;10.040;2022-07-04T06:44:10;3.05;;;2.58;;
14665;SDS011;7420;53.574;10.040;2022-07-04T06:46:35;5.18;;;2.63;;
14665;SDS011;7420;53.574;10.040;2022-07-04T06:49:00;8.80;;;2.58;;
14665;SDS011;7420;53.574;10.040;2022-07-04T06:51:26;7.57;;;2.80;;
14665;SDS011;7420;53.574;10.040;2022-07-04T06:53:51;4.40;;;2.37;;
14665;SDS011;7420;53.574;10.040;2022-07-04T06:56:16;9.77;;;3.58;;
14665;SDS011;7420;53.574;10.040;2022-07-04T06:58:42;4.32;;;2.30;;
14665;SDS011;7420;53.574;10.040;2022-07-04T07:01:07;8.95;;;2.75;;
14665;SDS011;7420;53.574;10.040;2022-07-04T07:03:32;6.97;;;2.28;;
14665;SDS011;7420;53.574;10.040;2022-07-04T07:05:57;7.80;;;2.33;;
14665;SDS011;7420;53.574;10.040;2022-07-04T07:08:23;4.75;;;2.25;;
14665;SDS011;7420;53.574;10.040;2022-07-04T07:10:48;4.07;;;2.40;;
14665;SDS011;7420;53.574;10.040;2022-07-04T07:13:14;6.22;;;2.55;;
14665;SDS011;7420;53.574;10.040;2022-07-04T07:15:39;4.65;;;2.65;;
14665;SDS011;7420;53.574;10.040;2022-07-04T07:18:05;4.25;;;1.90;;
14665;SDS011;7420;53.574;10.040;2022-07-04T07:20:30;4.53;;;2.30;;
14665;SDS011;7420;53.574;10.040;2022-07-04T07:22:55;4.28;;;2.03;;
14665;SDS011;7420;53.574;10.040;2022-07-04T07:25:21;3.25;;;1.90;;
14665;SDS011;7420;53.574;10.040;2022-07-04T07:27:46;4.35;;;2.20;;
14665;SDS011;7420;53.574;10.040;2022-07-04T07:30:11;3.38;;;1.80;;
14665;SDS011;7420;53.574;10.040;2022-07-04T07:32:37;6.07;;;2.25;;
14665;SDS011;7420;53.574;10.040;2022-07-04T07:35:02;4.47;;;2.17;;
14665;SDS011;7420;53.574;10.040;2022-07-04T07:37:28;4.47;;;1.80;;
14665;SDS011;7420;53.574;10.040;2022-07-04T07:39:53;4.75;;;2.03;;
14665;SDS011;7420;53.574;10.040;2022-07-04T07:42:18;2.05;;;1.40;;
14665;SDS011;7420;53.574;10.040;2022-07-04T07:44:44;4.55;;;1.92;;
14665;SDS011;7420;53.574;10.040;2022-07-04T07:47:12;4.75;;;2.53;;
14665;SDS011;7420;53.574;10.040;2022-07-04T07:49:37;3.10;;;1.90;;
14665;SDS011;7420;53.574;10.040;2022-07-04T07:52:03;4.67;;;2.00;;
14665;SDS011;7420;53.574;10.040;2022-07-04T07:54:28;3.08;;;1.52;;
14665;SDS011;7420;53.574;10.040;2022-07-04T07:56:53;5.57;;;2.00;;
14665;SDS011;7420;53.574;10.040;2022-07-04T07:59:18;2.00;;;1.60;;
14665;SDS011;7420;53.574;10.040;2022-07-04T08:01:43;5.93;;;1.70;;
14665;SDS011;7420;53.574;10.040;2022-07-04T08:04:09;2.57;;;1.60;;
14665;SDS011;7420;53.574;10.040;2022-07-04T08:06:53;2.78;;;1.60;;
14665;SDS011;7420;53.574;10.040;2022-07-04T08:09:18;2.90;;;1.60;;
14665;SDS011;7420;53.574;10.040;2022-07-04T08:11:43;6.10;;;1.80;;
14665;SDS011;7420;53.574;10.040;2022-07-04T08:14:08;3.67;;;1.85;;
14665;SDS011;7420;53.574;10.040;2022-07-04T08:16:34;4.10;;;1.80;;
14665;SDS011;7420;53.574;10.040;2022-07-04T08:18:59;2.20;;;1.63;;
14665;SDS011;7420;53.574;10.040;2022-07-04T08:21:24;2.53;;;1.50;;
14665;SDS011;7420;53.574;10.040;2022-07-04T08:23:50;3.70;;;1.38;;
14665;SDS011;7420;53.574;10.040;2022-07-04T08:26:15;3.33;;;1.50;;
14665;SDS011;7420;53.574;10.040;2022-07-04T08:28:40;3.13;;;1.70;;
14665;SDS011;7420;53.574;10.040;2022-07-04T08:31:05;2.23;;;1.57;;
14665;SDS011;7420;53.574;10.040;2022-07-04T08:33:31;5.15;;;1.70;;
14665;SDS011;7420;53.574;10.040;2022-07-04T08:35:56;4.95;;;1.73;;
14665;SDS011;7420;53.574;10.040;2022-07-04T08:38:23;2.92;;;1.58;;
14665;SDS011;7420;53.574;10.040;2022-07-04T08:40:48;3.83;;;1.50;;
14665;SDS011;7420;53.574;10.040;2022-07-04T08:43:15;2.03;;;1.83;;
14665;SDS011;7420;53.574;10.040;2022-07-04T08:45:40;2.40;;;1.35;;
14665;SDS011;7420;53.574;10.040;2022-07-04T08:48:07;2.15;;;1.33;;
14665;SDS011;7420;53.574;10.040;2022-07-04T08:52:59;5.55;;;1.70;;
14665;SDS011;7420;53.574;10.040;2022-07-04T08:55:24;6.22;;;1.45;;
14665;SDS011;7420;53.574;10.040;2022-07-04T08:58:08;5.78;;;1.85;;
14665;SDS011;7420;53.574;10.040;2022-07-04T09:00:53;3.13;;;1.50;;
14665;SDS011;7420;53.574;10.040;2022-07-04T09:03:18;2.85;;;1.50;;
14665;SDS011;7420;53.574;10.040;2022-07-04T09:05:44;3.30;;;1.50;;
14665;SDS011;7420;53.574;10.040;2022-07-04T09:08:09;4.40;;;1.52;;
14665;SDS011;7420;53.574;10.040;2022-07-04T09:10:35;1.58;;;1.38;;
14665;SDS011;7420;53.574;10.040;2022-07-04T09:13:01;3.20;;;1.48;;
14665;SDS011;7420;53.574;10.040;2022-07-04T09:15:27;1.85;;;1.48;;
14665;SDS011;7420;53.574;10.040;2022-07-04T09:17:53;0.00;;;0.00;;
14665;SDS011;7420;53.574;10.040;2022-07-04T09:20:19;2.88;;;1.50;;
14665;SDS011;7420;53.574;10.040;2022-07-04T09:22:45;2.00;;;1.40;;
14665;SDS011;7420;53.574;10.040;2022-07-04T09:25:10;3.40;;;1.65;;
14665;SDS011;7420;53.574;10.040;2022-07-04T09:27:39;2.00;;;1.58;;
14665;SDS011;7420;53.574;10.040;2022-07-04T09:30:05;1.83;;;1.33;;
14665;SDS011;7420;53.574;10.040;2022-07-04T09:32:37;2.38;;;1.40;;
14665;SDS011;7420;53.574;10.040;2022-07-04T09:35:07;2.95;;;1.60;;
14665;SDS011;7420;53.574;10.040;2022-07-04T09:37:33;4.50;;;1.65;;
14665;SDS011;7420;53.574;10.040;2022-07-04T09:39:58;3.05;;;1.52;;
14665;SDS011;7420;53.574;10.040;2022-07-04T09:42:24;3.45;;;1.17;;
14665;SDS011;7420;53.574;10.040;2022-07-04T09:44:49;4.73;;;1.70;;
14665;SDS011;7420;53.574;10.040;2022-07-04T09:49:57;1.75;;;1.30;;
14665;SDS011;7420;53.574;10.040;2022-07-04T09:52:22;2.13;;;1.30;;
14665;SDS011;7420;53.574;10.040;2022-07-04T09:54:48;2.57;;;1.87;;
14665;SDS011;7420;53.574;10.040;2022-07-04T09:57:13;3.85;;;1.35;;
14665;SDS011;7420;53.574;10.040;2022-07-04T09:59:46;2.30;;;1.67;;
14665;SDS011;7420;53.574;10.040;2022-07-04T10:02:11;2.77;;;1.30;;
14665;SDS011;7420;53.574;10.040;2022-07-04T10:04:42;5.40;;;1.45;;
14665;SDS011;7420;53.574;10.040;2022-07-04T10:07:08;1.73;;;1.35;;
14665;SDS011;7420;53.574;10.040;2022-07-04T10:09:33;2.15;;;1.52;;
14665;SDS011;7420;53.574;10.040;2022-07-04T10:11:59;1.65;;;1.42;;
14665;SDS011;7420;53.574;10.040;2022-07-04T10:14:24;3.90;;;1.40;;
14665;SDS011;7420;53.574;10.040;2022-07-04T10:16:49;5.00;;;1.38;;
14665;SDS011;7420;53.574;10.040;2022-07-04T10:19:15;4.47;;;1.33;;
14665;SDS011;7420;53.574;10.040;2022-07-04T10:21:40;4.68;;;1.60;;
14665;SDS011;7420;53.574;10.040;2022-07-04T10:24:06;2.97;;;1.58;;
14665;SDS011;7420;53.574;10.040;2022-07-04T10:26:31;2.20;;;1.50;;
14665;SDS011;7420;53.574;10.040;2022-07-04T10:28:57;4.45;;;1.13;;
14665;SDS011;7420;53.574;10.040;2022-07-04T10:31:23;2.00;;;1.30;;
14665;SDS011;7420;53.574;10.040;2022-07-04T10:33:50;1.77;;;1.30;;
14665;SDS011;7420;53.574;10.040;2022-07-04T10:36:19;3.55;;;1.60;;
14665;SDS011;7420;53.574;10.040;2022-07-04T10:38:49;3.72;;;1.27;;
14665;SDS011;7420;53.574;10.040;2022-07-04T10:41:15;1.20;;;1.02;;
14665;SDS011;7420;53.574;10.040;2022-07-04T10:46:28;4.97;;;1.35;;
14665;SDS011;7420;53.574;10.040;2022-07-04T10:58:53;2.33;;;1.30;;
14665;SDS011;7420;53.574;10.040;2022-07-04T11:01:19;3.67;;;1.45;;
14665;SDS011;7420;53.574;10.040;2022-07-04T11:03:48;2.28;;;1.48;;
14665;SDS011;7420;53.574;10.040;2022-07-04T11:09:16;2.13;;;1.30;;
14665;SDS011;7420;53.574;10.040;2022-07-04T11:11:48;2.72;;;1.20;;
14665;SDS011;7420;53.574;10.040;2022-07-04T11:16:54;2.60;;;1.10;;
14665;SDS011;7420;53.574;10.040;2022-07-04T11:19:20;2.33;;;1.23;;
14665;SDS011;7420;53.574;10.040;2022-07-04T11:21:45;1.30;;;1.20;;
14665;SDS011;7420;53.574;10.040;2022-07-04T11:24:10;3.67;;;1.60;;
14665;SDS011;7420;53.574;10.040;2022-07-04T11:26:35;3.60;;;1.20;;
14665;SDS011;7420;53.574;10.040;2022-07-04T11:29:01;2.35;;;1.23;;
14665;SDS011;7420;53.574;10.040;2022-07-04T11:31:39;2.28;;;1.20;;
14665;SDS011;7420;53.574;10.040;2022-07-04T11:34:05;1.25;;;1.15;;
14665;SDS011;7420;53.574;10.040;2022-07-04T11:36:30;5.15;;;2.05;;
14665;SDS011;7420;53.574;10.040;2022-07-04T11:38:59;49.53;;;47.00;;
14665;SDS011;7420;53.574;10.040;2022-07-04T11:41:25;1.52;;;1.42;;
14665;SDS011;7420;53.574;10.040;2022-07-04T11:44:10;2.67;;;1.63;;
14665;SDS011;7420;53.574;10.040;2022-07-04T11:47:16;4.45;;;1.42;;
14665;SDS011;7420;53.574;10.040;2022-07-04T11:49:42;3.03;;;1.35;;
14665;SDS011;7420;53.574;10.040;2022-07-04T11:52:07;2.40;;;1.20;;
14665;SDS011;7420;53.574;10.040;2022-07-04T11:54:33;1.80;;;1.30;;
14665;SDS011;7420;53.574;10.040;2022-07-04T11:57:11;3.83;;;1.58;;
14665;SDS011;7420;53.574;10.040;2022-07-04T11:59:37;2.45;;;1.45;;
14665;SDS011;7420;53.574;10.040;2022-07-04T12:02:12;3.50;;;1.35;;
14665;SDS011;7420;53.574;10.040;2022-07-04T12:04:37;1.52;;;1.27;;
14665;SDS011;7420;53.574;10.040;2022-07-04T12:07:14;4.40;;;1.50;;
14665;SDS011;7420;53.574;10.040;2022-07-04T12:09:40;2.65;;;1.30;;
14665;SDS011;7420;53.574;10.040;2022-07-04T12:12:05;4.03;;;1.35;;
14665;SDS011;7420;53.574;10.040;2022-07-04T12:14:31;4.57;;;1.30;;
14665;SDS011;7420;53.574;10.040;2022-07-04T12:17:15;3.00;;;1.20;;
14665;SDS011;7420;53.574;10.040;2022-07-04T12:19:56;3.47;;;1.33;;
14665;SDS011;7420;53.574;10.040;2022-07-04T12:24:50;2.60;;;1.35;;
14665;SDS011;7420;53.574;10.040;2022-07-04T12:27:16;2.33;;;1.20;;
14665;SDS011;7420;53.574;10.040;2022-07-04T12:29:45;2.83;;;1.35;;
14665;SDS011;7420;53.574;10.040;2022-07-04T12:32:11;4.53;;;1.60;;
14665;SDS011;7420;53.574;10.040;2022-07-04T12:34:38;2.53;;;1.40;;
14665;SDS011;7420;53.574;10.040;2022-07-04T12:37:06;4.35;;;1.48;;
14665;SDS011;7420;53.574;10.040;2022-07-04T12:39:33;3.50;;;1.30;;
14665;SDS011;7420;53.574;10.040;2022-07-04T12:42:12;3.42;;;1.50;;
14665;SDS011;7420;53.574;10.040;2022-07-04T12:44:38;4.47;;;1.60;;
14665;SDS011;7420;53.574;10.040;2022-07-04T12:47:06;4.70;;;1.25;;
14665;SDS011;7420;53.574;10.040;2022-07-04T12:49:32;2.55;;;1.30;;
14665;SDS011;7420;53.574;10.040;2022-07-04T12:52:30;3.03;;;1.40;;
14665;SDS011;7420;53.574;10.040;2022-07-04T12:55:07;3.88;;;1.83;;
14665;SDS011;7420;53.574;10.040;2022-07-04T12:57:35;2.65;;;1.30;;
14665;SDS011;7420;53.574;10.040;2022-07-04T13:00:01;1.75;;;1.35;;
14665;SDS011;7420;53.574;10.040;2022-07-04T13:02:26;3.92;;;1.50;;
14665;SDS011;7420;53.574;10.040;2022-07-04T13:04:51;3.70;;;1.40;;
14665;SDS011;7420;53.574;10.040;2022-07-04T13:07:17;2.57;;;1.50;;
14665;SDS011;7420;53.574;10.040;2022-07-04T13:09:43;4.32;;;2.25;;
14665;SDS011;7420;53.574;10.040;2022-07-04T13:12:09;4.65;;;1.83;;
14665;SDS011;7420;53.574;10.040;2022-07-04T13:14:49;3.45;;;1.25;;
14665;SDS011;7420;53.574;10.040;2022-07-04T13:17:14;5.57;;;1.63;;
14665;SDS011;7420;53.574;10.040;2022-07-04T13:19:39;2.67;;;1.37;;
14665;SDS011;7420;53.574;10.040;2022-07-04T13:22:04;3.53;;;1.87;;
14665;SDS011;7420;53.574;10.040;2022-07-04T13:24:30;3.40;;;1.20;;
14665;SDS011;7420;53.574;10.040;2022-07-04T13:26:55;2.33;;;1.40;;
14665;SDS011;7420;53.574;10.040;2022-07-04T13:29:20;2.83;;;1.70;;
14665;SDS011;7420;53.574;10.040;2022-07-04T13:31:47;4.30;;;1.50;;
14665;SDS011;7420;53.574;10.040;2022-07-04T13:34:12;4.57;;;1.90;;
14665;SDS011;7420;53.574;10.040;2022-07-04T13:36:37;6.20;;;1.80;;
14665;SDS011;7420;53.574;10.040;2022-07-04T13:39:03;4.00;;;1.60;;
14665;SDS011;7420;53.574;10.040;2022-07-04T13:41:29;4.05;;;1.85;;
14665;SDS011;7420;53.574;10.040;2022-07-04T13:43:55;3.92;;;1.50;;
14665;SDS011;7420;53.574;10.040;2022-07-04T13:46:21;3.17;;;1.42;;
14665;SDS011;7420;53.574;10.040;2022-07-04T13:48:46;3.50;;;1.67;;
14665;SDS011;7420;53.574;10.040;2022-07-04T13:51:14;1.70;;;1.60;;
14665;SDS011;7420;53.574;10.040;2022-07-04T13:53:40;2.77;;;1.53;;
14665;SDS011;7420;53.574;10.040;2022-07-04T13:56:05;3.80;;;1.67;;
14665;SDS011;7420;53.574;10.040;2022-07-04T13:58:30;3.13;;;1.60;;
14665;SDS011;7420;53.574;10.040;2022-07-04T14:00:56;5.05;;;1.65;;
14665;SDS011;7420;53.574;10.040;2022-07-04T14:03:21;2.83;;;1.48;;
14665;SDS011;7420;53.574;10.040;2022-07-04T14:05:46;4.73;;;2.30;;
14665;SDS011;7420;53.574;10.040;2022-07-04T14:08:12;5.63;;;3.13;;
14665;SDS011;7420;53.574;10.040;2022-07-04T14:10:37;3.83;;;1.63;;
14665;SDS011;7420;53.574;10.040;2022-07-04T14:13:02;3.70;;;1.77;;
14665;SDS011;7420;53.574;10.040;2022-07-04T14:15:27;5.10;;;1.80;;
14665;SDS011;7420;53.574;10.040;2022-07-04T14:17:53;6.20;;;1.60;;
14665;SDS011;7420;53.574;10.040;2022-07-04T14:20:18;1.92;;;1.42;;
14665;SDS011;7420;53.574;10.040;2022-07-04T14:22:43;3.55;;;1.85;;
14665;SDS011;7420;53.574;10.040;2022-07-04T14:25:09;6.47;;;1.73;;
14665;SDS011;7420;53.574;10.040;2022-07-04T14:27:34;4.53;;;2.20;;
14665;SDS011;7420;53.574;10.040;2022-07-04T14:29:59;8.85;;;1.67;;
14665;SDS011;7420;53.574;10.040;2022-07-04T14:32:24;3.20;;;1.70;;
14665;SDS011;7420;53.574;10.040;2022-07-04T14:34:50;3.40;;;1.45;;
14665;SDS011;7420;53.574;10.040;2022-07-04T14:37:15;2.90;;;1.50;;
14665;SDS011;7420;53.574;10.040;2022-07-04T14:39:41;2.97;;;1.48;;
14665;SDS011;7420;53.574;10.040;2022-07-04T14:42:06;4.07;;;1.60;;
14665;SDS011;7420;53.574;10.040;2022-07-04T14:44:31;10.02;;;1.83;;
14665;SDS011;7420;53.574;10.040;2022-07-04T14:47:00;4.25;;;1.70;;
14665;SDS011;7420;53.574;10.040;2022-07-04T14:49:26;5.63;;;1.87;;
14665;SDS011;7420;53.574;10.040;2022-07-04T14:51:51;6.70;;;1.50;;
14665;SDS011;7420;53.574;10.040;2022-07-04T14:54:18;4.30;;;1.60;;
14665;SDS011;7420;53.574;10.040;2022-07-04T14:56:43;3.15;;;1.80;;
14665;SDS011;7420;53.574;10.040;2022-07-04T14:59:08;4.63;;;2.10;;
14665;SDS011;7420;53.574;10.040;2022-07-04T15:01:34;3.85;;;1.48;;
14665;SDS011;7420;53.574;10.040;2022-07-04T15:03:59;5.40;;;1.93;;